createdAt,value
2019-02-02T00:00:34.815Z,97.60
2019-02-02T00:03:03.644Z,97.50
2019-02-02T00:05:32.437Z,97.40
2019-02-02T00:08:01.333Z,97.40
2019-02-02T00:10:30.114Z,97.20
2019-02-02T00:12:58.919Z,97.20
2019-02-02T00:15:27.795Z,97.00
2019-02-02T00:17:57.015Z,97.30
2019-02-02T00:20:25.855Z,97.20
2019-02-02T00:22:54.759Z,97.30
2019-02-02T00:25:23.511Z,97.40
2019-02-02T00:27:52.987Z,97.50
2019-02-02T00:30:21.786Z,97.60
2019-02-02T00:32:50.632Z,97.80
2019-02-02T00:35:19.680Z,97.90
2019-02-02T00:37:48.430Z,98.00
2019-02-02T00:40:18.942Z,97.90
2019-02-02T00:42:47.757Z,97.90
2019-02-02T00:45:21.351Z,97.90
2019-02-02T00:47:50.313Z,97.80
2019-02-02T00:50:19.484Z,97.70
2019-02-02T00:52:48.362Z,97.80
2019-02-02T00:55:20.526Z,97.90
2019-02-02T00:57:53.797Z,97.90
2019-02-02T01:00:21.490Z,97.90
2019-02-02T01:02:50.209Z,98.00
2019-02-02T01:05:20.935Z,98.10
2019-02-02T01:07:50.252Z,98.10
2019-02-02T01:10:33.599Z,98.10
2019-02-02T01:13:02.536Z,98.30
2019-02-02T01:15:31.502Z,98.20
2019-02-02T01:18:00.517Z,98.20
2019-02-02T01:20:30.402Z,98.30
2019-02-02T01:22:59.478Z,98.30
2019-02-02T01:25:28.365Z,98.20
2019-02-02T01:28:04.941Z,98.20
2019-02-02T01:30:27.823Z,98.30
2019-02-02T01:32:56.633Z,98.20
2019-02-02T01:35:25.558Z,98.00
2019-02-02T01:37:54.266Z,98.30
2019-02-02T01:40:25.070Z,98.40
2019-02-02T01:42:53.933Z,98.50
2019-02-02T01:45:25.101Z,98.50
2019-02-02T01:47:54.168Z,98.50
2019-02-02T01:50:25.538Z,98.40
2019-02-02T01:52:54.357Z,98.40
2019-02-02T01:55:23.270Z,98.10
2019-02-02T01:57:52.067Z,98.30
2019-02-02T02:00:32.345Z,98.20
2019-02-02T02:03:01.221Z,98.10
2019-02-02T02:05:30.089Z,98.10
2019-02-02T02:07:59.293Z,98.10
2019-02-02T02:10:28.098Z,98.10
2019-02-02T02:12:56.866Z,98.10
2019-02-02T02:15:25.670Z,98.20
2019-02-02T02:17:54.486Z,98.20
2019-02-02T02:20:24.336Z,98.30
2019-02-02T02:22:53.583Z,98.30
2019-02-02T02:25:22.447Z,98.10
2019-02-02T02:27:51.239Z,98.30
2019-02-02T02:30:22.059Z,98.30
2019-02-02T02:32:51.375Z,98.30
2019-02-02T02:35:20.257Z,98.20
2019-02-02T02:37:49.243Z,98.30
2019-02-02T02:40:22.698Z,98.20
2019-02-02T02:42:52.413Z,98.20
2019-02-02T02:45:21.650Z,98.30
2019-02-02T02:47:51.005Z,98.40
2019-02-02T02:50:21.634Z,98.50
2019-02-02T02:52:50.919Z,98.60
2019-02-02T02:55:20.967Z,98.60
2019-02-02T02:57:49.873Z,98.60
2019-02-02T03:00:24.107Z,98.50
2019-02-02T03:02:53.012Z,98.30
2019-02-02T03:05:22.235Z,98.60
2019-02-02T03:07:52.686Z,98.80
2019-02-02T03:10:24.065Z,98.80
2019-02-02T03:12:52.898Z,98.50
2019-02-02T03:15:22.224Z,98.80
2019-02-02T03:17:51.532Z,98.60
2019-02-02T03:20:20.675Z,98.60
2019-02-02T03:22:49.370Z,99.00
2019-02-02T03:25:25.942Z,98.80
2019-02-02T03:27:54.715Z,98.80
2019-02-02T03:30:23.591Z,98.80
2019-02-02T03:32:52.473Z,98.80
2019-02-02T03:35:25.218Z,99.20
2019-02-02T03:37:53.947Z,99.20
2019-02-02T03:40:24.298Z,99.20
2019-02-02T03:42:53.129Z,99.30
2019-02-02T03:45:23.603Z,99.30
2019-02-02T03:47:53.427Z,99.30
2019-02-02T03:50:22.441Z,99.30
2019-02-02T03:52:51.695Z,99.20
2019-02-02T03:55:20.514Z,99.10
2019-02-02T03:57:49.269Z,99.40
2019-02-02T04:00:20.285Z,99.60
2019-02-02T04:02:49.209Z,99.50
2019-02-02T04:05:20.089Z,99.70
2019-02-02T04:07:48.999Z,99.70
2019-02-02T04:10:17.889Z,99.70
2019-02-02T04:12:46.710Z,99.70
2019-02-02T04:15:17.595Z,99.90
2019-02-02T04:17:46.473Z,99.90
2019-02-02T04:20:17.554Z,99.90
2019-02-02T04:22:46.483Z,99.90
2019-02-02T04:25:15.885Z,99.90
2019-02-02T04:27:44.679Z,99.90
2019-02-02T04:30:19.144Z,99.90
2019-02-02T04:32:48.003Z,99.90
2019-02-02T04:35:16.809Z,99.90
2019-02-02T04:37:45.575Z,99.90
2019-02-02T04:40:15.753Z,99.90
2019-02-02T04:42:44.517Z,99.90
2019-02-02T04:45:15.724Z,99.90
2019-02-02T04:47:44.584Z,99.90
2019-02-02T04:50:20.783Z,99.90
2019-02-02T04:52:49.787Z,99.90
2019-02-02T04:55:19.754Z,99.90
2019-02-02T04:57:48.487Z,99.90
2019-02-02T05:00:22.647Z,99.90
2019-02-02T05:02:51.631Z,99.90
2019-02-02T05:05:20.399Z,99.90
2019-02-02T05:07:49.216Z,99.90
2019-02-02T05:10:20.155Z,99.90
2019-02-02T05:12:49.281Z,99.90
2019-02-02T05:15:18.209Z,99.90
2019-02-02T05:17:46.854Z,99.90
2019-02-02T05:20:17.407Z,99.90
2019-02-02T05:22:46.350Z,99.90
2019-02-02T05:25:15.224Z,99.90
2019-02-02T05:27:43.979Z,99.90
2019-02-02T05:30:18.298Z,99.90
2019-02-02T05:32:47.082Z,99.90
2019-02-02T05:35:15.796Z,99.90
2019-02-02T05:37:44.841Z,99.90
2019-02-02T05:40:18.887Z,99.90
2019-02-02T05:42:48.051Z,99.90
2019-02-02T05:45:19.061Z,99.90
2019-02-02T05:47:47.863Z,99.90
2019-02-02T05:50:23.816Z,99.90
2019-02-02T05:52:52.857Z,99.90
2019-02-02T05:55:23.253Z,99.90
2019-02-02T05:57:52.170Z,99.90
2019-02-02T06:00:30.991Z,99.90
2019-02-02T06:02:59.882Z,99.90
2019-02-02T06:05:28.629Z,99.90
2019-02-02T06:07:57.410Z,99.90
2019-02-02T06:10:26.234Z,99.90
2019-02-02T06:12:55.054Z,99.90
2019-02-02T06:15:24.165Z,99.90
2019-02-02T06:17:53.100Z,99.90
2019-02-02T06:20:21.717Z,99.90
2019-02-02T06:22:50.479Z,99.90
2019-02-02T06:25:19.398Z,99.90
2019-02-02T06:27:48.184Z,99.90
2019-02-02T06:30:21.626Z,99.90
2019-02-02T06:32:50.464Z,99.90
2019-02-02T06:35:19.948Z,99.90
2019-02-02T06:37:48.694Z,99.90
2019-02-02T06:40:19.138Z,99.90
2019-02-02T06:42:47.912Z,99.90
2019-02-02T06:45:22.613Z,99.90
2019-02-02T06:47:51.486Z,99.90
2019-02-02T06:50:20.347Z,99.90
2019-02-02T06:52:49.173Z,99.90
2019-02-02T06:55:18.413Z,99.90
2019-02-02T06:57:47.116Z,99.90
2019-02-02T07:00:21.778Z,99.90
2019-02-02T07:02:52.094Z,99.90
2019-02-02T07:05:20.995Z,99.90
2019-02-02T07:07:50.066Z,99.90
2019-02-02T07:10:21.438Z,99.90
2019-02-02T07:12:50.475Z,99.90
2019-02-02T07:15:21.750Z,99.90
2019-02-02T07:17:50.765Z,99.90
2019-02-02T07:20:19.463Z,99.90
2019-02-02T07:22:48.341Z,99.90
2019-02-02T07:25:17.293Z,99.90
2019-02-02T07:27:46.290Z,99.90
2019-02-02T07:30:28.248Z,99.90
2019-02-02T07:32:50.618Z,99.90
2019-02-02T07:35:19.760Z,99.90
2019-02-02T07:37:48.626Z,99.90
2019-02-02T07:40:19.041Z,99.90
2019-02-02T07:42:47.783Z,99.90
2019-02-02T07:45:25.407Z,99.90
2019-02-02T07:47:54.209Z,99.90
2019-02-02T07:50:23.181Z,99.90
2019-02-02T07:52:52.036Z,99.90
2019-02-02T07:55:23.819Z,99.90
2019-02-02T07:57:54.287Z,99.90
2019-02-02T08:00:40.949Z,99.90
2019-02-02T08:03:06.783Z,99.90
2019-02-02T08:05:36.962Z,99.90
2019-02-02T08:08:07.715Z,99.90
2019-02-02T08:10:36.822Z,99.90
2019-02-02T08:13:07.651Z,99.90
2019-02-02T08:15:36.608Z,99.90
2019-02-02T08:18:12.554Z,99.90
2019-02-02T08:20:37.027Z,99.90
2019-02-02T08:23:06.220Z,99.90
2019-02-02T08:25:35.423Z,99.90
2019-02-02T08:28:04.579Z,99.90
2019-02-02T08:30:35.771Z,99.90
2019-02-02T08:33:05.495Z,99.90
2019-02-02T08:35:34.719Z,98.30
2019-02-02T08:38:06.482Z,97.30
2019-02-02T08:40:36.853Z,97.30
2019-02-02T08:43:05.771Z,96.60
2019-02-02T08:45:34.478Z,96.60
2019-02-02T08:48:03.172Z,95.90
2019-02-02T08:50:34.398Z,95.50
2019-02-02T08:53:03.514Z,94.30
2019-02-02T08:55:32.948Z,94.40
2019-02-02T08:58:01.761Z,92.60
2019-02-02T09:00:30.688Z,90.40
2019-02-02T09:02:59.452Z,86.70
2019-02-02T09:05:28.590Z,83.30
2019-02-02T09:07:57.321Z,81.80
2019-02-02T09:10:28.014Z,82.10
2019-02-02T09:12:57.732Z,80.30
2019-02-02T09:15:27.246Z,81.30
2019-02-02T09:17:56.091Z,79.00
2019-02-02T09:20:25.096Z,75.80
2019-02-02T09:23:03.931Z,73.00
2019-02-02T09:25:24.458Z,74.10
2019-02-02T09:27:53.200Z,72.10
2019-02-02T09:30:27.552Z,71.80
2019-02-02T09:32:56.417Z,71.70
2019-02-02T09:35:25.288Z,74.20
2019-02-02T09:37:54.173Z,66.90
2019-02-02T09:40:25.512Z,58.30
2019-02-02T09:42:53.466Z,55.10
2019-02-02T09:45:23.599Z,55.00
2019-02-02T09:47:52.697Z,55.40
2019-02-02T09:50:28.024Z,58.50
2019-02-02T09:52:56.912Z,52.20
2019-02-02T09:55:26.665Z,47.40
2019-02-02T09:57:58.237Z,46.90
2019-02-02T10:00:28.999Z,43.90
2019-02-02T10:02:58.237Z,40.20
2019-02-02T10:05:27.080Z,35.90
2019-02-02T10:07:55.936Z,32.90
2019-02-02T10:10:26.834Z,30.60
2019-02-02T10:12:55.767Z,29.80
2019-02-02T10:15:24.607Z,27.70
2019-02-02T10:17:53.436Z,26.90
2019-02-02T10:20:25.098Z,26.20
2019-02-02T10:22:55.973Z,26.00
2019-02-02T10:25:32.203Z,25.60
2019-02-02T10:28:01.713Z,25.00
2019-02-02T10:30:38.973Z,24.50
2019-02-02T10:33:08.117Z,24.00
2019-02-02T10:35:37.016Z,24.10
2019-02-02T10:38:06.365Z,23.90
2019-02-02T10:40:35.250Z,23.50
2019-02-02T10:43:04.128Z,23.40
2019-02-02T10:45:32.940Z,23.40
2019-02-02T10:48:01.687Z,23.30
2019-02-02T10:50:30.531Z,23.50
2019-02-02T10:52:59.498Z,24.80
2019-02-02T10:55:28.659Z,26.50
2019-02-02T10:57:57.737Z,26.90
2019-02-02T11:00:38.163Z,27.40
2019-02-02T11:03:07.051Z,26.80
2019-02-02T11:05:36.037Z,28.00
2019-02-02T11:08:05.908Z,29.10
2019-02-02T11:10:35.737Z,29.60
2019-02-02T11:13:06.087Z,32.40
2019-02-02T11:15:34.977Z,37.40
2019-02-02T11:18:03.969Z,42.00
2019-02-02T11:20:34.818Z,44.30
2019-02-02T11:23:03.784Z,45.00
2019-02-02T11:25:32.585Z,44.90
2019-02-02T11:28:01.587Z,45.70
2019-02-02T11:30:31.179Z,48.90
2019-02-02T11:32:59.984Z,52.10
2019-02-02T11:35:28.748Z,53.50
2019-02-02T11:37:57.720Z,55.00
2019-02-02T11:40:31.399Z,56.00
2019-02-02T11:43:00.639Z,59.40
2019-02-02T11:45:29.602Z,63.40
2019-02-02T11:47:58.462Z,68.50
2019-02-02T11:50:27.224Z,72.60
2019-02-02T11:52:56.066Z,75.40
2019-02-02T11:55:31.175Z,74.90
2019-02-02T11:58:00.164Z,73.60
2019-02-02T12:00:40.452Z,68.50
2019-02-02T12:03:09.777Z,67.80
2019-02-02T12:05:38.772Z,69.30
2019-02-02T12:08:07.640Z,70.30
2019-02-02T12:10:37.204Z,71.40
2019-02-02T12:13:06.268Z,73.20
2019-02-02T12:15:35.530Z,74.80
2019-02-02T12:18:06.404Z,76.80
2019-02-02T12:20:35.357Z,78.70
2019-02-02T12:23:04.438Z,80.50
2019-02-02T12:25:33.566Z,81.30
2019-02-02T12:28:02.364Z,81.50
2019-02-02T12:30:33.102Z,81.50
2019-02-02T12:33:03.400Z,81.70
2019-02-02T12:35:32.602Z,81.80
2019-02-02T12:38:01.477Z,81.70
2019-02-02T12:40:30.363Z,83.10
2019-02-02T12:42:59.224Z,83.70
2019-02-02T12:45:36.688Z,83.70
2019-02-02T12:48:05.920Z,83.40
2019-02-02T12:50:34.832Z,82.90
2019-02-02T12:53:03.724Z,82.30
2019-02-02T12:55:32.641Z,82.50
2019-02-02T12:58:01.427Z,82.80
2019-02-02T13:00:30.207Z,83.50
2019-02-02T13:02:58.999Z,84.00
2019-02-02T13:05:28.503Z,84.70
2019-02-02T13:07:57.377Z,85.50
2019-02-02T13:10:28.342Z,86.40
2019-02-02T13:12:57.307Z,87.80
2019-02-02T13:15:26.138Z,88.50
2019-02-02T13:17:54.865Z,89.00
2019-02-02T13:20:23.740Z,89.40
2019-02-02T13:22:52.535Z,90.00
2019-02-02T13:25:22.829Z,90.00
2019-02-02T13:27:51.779Z,90.00
2019-02-02T13:30:25.822Z,90.10
2019-02-02T13:32:54.646Z,90.20
2019-02-02T13:35:24.399Z,90.30
2019-02-02T13:37:53.419Z,89.80
2019-02-02T13:43:19.833Z,89.70
2019-02-02T13:45:48.749Z,89.70
2019-02-02T13:48:17.664Z,89.60
2019-02-02T13:50:46.441Z,89.40
2019-02-02T13:53:15.363Z,89.40
2019-02-02T13:55:44.309Z,90.00
2019-02-02T13:58:13.095Z,90.10
2019-02-02T14:00:41.872Z,90.30
2019-02-02T14:03:10.941Z,90.30
2019-02-02T14:05:40.218Z,90.50
2019-02-02T14:08:09.073Z,89.50
2019-02-02T14:10:37.922Z,88.80
2019-02-02T14:13:07.472Z,89.00
2019-02-02T14:15:39.151Z,89.20
2019-02-02T14:18:06.604Z,89.60
2019-02-02T14:20:35.436Z,89.50
2019-02-02T14:23:04.298Z,90.00
2019-02-02T14:25:33.076Z,90.30
2019-02-02T14:28:01.913Z,90.50
2019-02-02T14:30:30.970Z,90.80
2019-02-02T14:32:59.911Z,91.10
2019-02-02T14:35:29.520Z,91.50
2019-02-02T14:37:58.365Z,91.90
2019-02-02T14:40:27.286Z,92.10
2019-02-02T14:42:56.136Z,92.30
2019-02-02T14:45:27.526Z,92.20
2019-02-02T14:47:56.491Z,92.20
2019-02-02T14:50:25.323Z,92.40
2019-02-02T14:52:54.836Z,93.00
2019-02-02T14:55:25.594Z,92.90
2019-02-02T14:57:54.561Z,92.90
2019-02-02T15:00:25.482Z,93.10
2019-02-02T15:02:54.207Z,92.80
2019-02-02T15:05:23.398Z,92.80
2019-02-02T15:07:52.353Z,93.30
2019-02-02T15:10:22.161Z,92.60
2019-02-02T15:12:51.181Z,92.80
2019-02-02T15:15:20.386Z,92.70
2019-02-02T15:17:49.241Z,92.80
2019-02-02T15:20:23.171Z,93.20
2019-02-02T15:22:52.120Z,93.60
2019-02-02T15:25:21.625Z,93.70
2019-02-02T15:27:50.552Z,93.60
2019-02-02T15:30:27.680Z,93.60
2019-02-02T15:32:56.522Z,93.20
2019-02-02T15:35:25.349Z,92.90
2019-02-02T15:37:54.149Z,92.50
2019-02-02T15:40:23.066Z,92.20
2019-02-02T15:42:51.818Z,92.20
2019-02-02T15:45:24.126Z,92.00
2019-02-02T15:47:53.147Z,91.90
2019-02-02T15:50:22.111Z,92.30
2019-02-02T15:52:50.991Z,92.20
2019-02-02T15:55:21.591Z,92.20
2019-02-02T15:57:50.338Z,92.10
2019-02-02T16:00:22.076Z,92.20
2019-02-02T16:02:50.997Z,92.30
2019-02-02T16:05:21.309Z,92.40
2019-02-02T16:07:51.115Z,92.30
2019-02-02T16:10:28.495Z,92.60
2019-02-02T16:12:57.465Z,92.90
2019-02-02T16:15:26.336Z,93.00
2019-02-02T16:17:55.207Z,93.20
2019-02-02T16:20:35.749Z,93.60
2019-02-02T16:23:05.249Z,93.70
2019-02-02T16:25:34.150Z,94.00
2019-02-02T16:28:02.899Z,94.30
2019-02-02T16:30:32.304Z,94.40
2019-02-02T16:33:01.935Z,94.60
2019-02-02T16:35:30.809Z,94.60
2019-02-02T16:37:59.808Z,94.60
2019-02-02T16:40:30.083Z,94.60
2019-02-02T16:42:58.976Z,94.60
2019-02-02T16:45:32.663Z,94.70
2019-02-02T16:48:01.650Z,94.60
2019-02-02T16:50:30.576Z,94.60
2019-02-02T16:52:59.353Z,94.50
2019-02-02T16:55:28.306Z,94.40
2019-02-02T16:57:57.524Z,94.50
2019-02-02T17:00:28.792Z,94.40
2019-02-02T17:02:57.573Z,94.30
2019-02-02T17:05:26.555Z,94.10
2019-02-02T17:07:55.498Z,94.20
2019-02-02T17:10:26.465Z,94.30
2019-02-02T17:12:55.445Z,94.60
2019-02-02T17:15:24.335Z,94.70
2019-02-02T17:17:53.151Z,94.90
2019-02-02T17:20:24.591Z,95.20
2019-02-02T17:22:53.608Z,95.40
2019-02-02T17:25:23.115Z,95.30
2019-02-02T17:27:52.242Z,95.20
2019-02-02T17:30:23.577Z,95.30
2019-02-02T17:32:53.547Z,95.20
2019-02-02T17:35:22.449Z,95.40
2019-02-02T17:37:51.358Z,95.60
2019-02-02T17:40:28.693Z,95.80
2019-02-02T17:42:57.548Z,96.10
2019-02-02T17:45:26.373Z,96.20
2019-02-02T17:47:55.153Z,96.50
2019-02-02T17:50:26.990Z,96.80
2019-02-02T17:52:55.788Z,97.10
2019-02-02T17:55:24.586Z,97.30
2019-02-02T17:57:53.484Z,97.70
2019-02-02T18:00:26.720Z,97.80
2019-02-02T18:02:55.507Z,98.00
2019-02-02T18:05:24.232Z,98.30
2019-02-02T18:07:53.126Z,98.30
2019-02-02T18:10:21.961Z,98.60
2019-02-02T18:12:50.816Z,98.80
2019-02-02T18:15:19.442Z,99.10
2019-02-02T18:17:48.197Z,99.10
2019-02-02T18:20:17.438Z,99.00
2019-02-02T18:22:46.279Z,99.30
2019-02-02T18:25:16.657Z,99.70
2019-02-02T18:27:46.003Z,99.80
2019-02-02T18:30:17.802Z,99.90
2019-02-02T18:32:47.009Z,99.90
2019-02-02T18:35:16.857Z,99.90
2019-02-02T18:37:45.689Z,99.90
2019-02-02T18:40:24.582Z,99.90
2019-02-02T18:42:54.103Z,99.90
2019-02-02T18:45:27.891Z,99.90
2019-02-02T18:47:56.809Z,99.90
2019-02-02T18:50:25.651Z,99.90
2019-02-02T18:52:59.500Z,99.90
2019-02-02T18:55:36.952Z,99.90
2019-02-02T18:58:06.325Z,99.90
2019-02-02T19:00:35.175Z,99.90
2019-02-02T19:03:05.042Z,99.90
2019-02-02T19:05:33.990Z,99.90
2019-02-02T19:08:02.839Z,99.90
2019-02-02T19:10:34.695Z,99.90
2019-02-02T19:13:03.574Z,99.90
2019-02-02T19:15:32.481Z,99.90
2019-02-02T19:18:03.443Z,99.90
2019-02-02T19:20:31.908Z,99.90
2019-02-02T19:23:00.705Z,99.90
2019-02-02T19:25:29.496Z,99.90
2019-02-02T19:27:58.307Z,99.90
2019-02-02T19:30:32.315Z,99.90
2019-02-02T19:33:01.259Z,99.90
2019-02-02T19:35:30.121Z,99.90
2019-02-02T19:37:59.509Z,99.90
2019-02-02T19:40:28.274Z,99.90
2019-02-02T19:42:57.129Z,99.90
2019-02-02T19:45:28.030Z,99.90
2019-02-02T19:47:57.442Z,99.90
2019-02-02T19:50:28.131Z,99.90
2019-02-02T19:52:57.524Z,99.90
2019-02-02T19:55:26.807Z,99.90
2019-02-02T19:57:55.715Z,99.90
2019-02-02T20:00:29.743Z,99.90
2019-02-02T20:02:58.497Z,99.90
2019-02-02T20:05:28.980Z,99.90
2019-02-02T20:07:58.041Z,99.90
2019-02-02T20:10:26.943Z,99.90
2019-02-02T20:12:55.845Z,99.90
2019-02-02T20:15:26.628Z,99.90
2019-02-02T20:18:09.916Z,99.90
2019-02-02T20:20:36.651Z,99.90
2019-02-02T20:23:05.649Z,99.90
2019-02-02T20:25:34.551Z,99.90
2019-02-02T20:28:03.550Z,99.90
2019-02-02T20:30:33.143Z,99.90
2019-02-02T20:33:03.202Z,99.90
2019-02-02T20:35:40.897Z,99.90
2019-02-02T20:38:02.513Z,99.90
2019-02-02T20:40:31.454Z,99.90
2019-02-02T20:43:00.260Z,99.90
2019-02-02T20:45:35.116Z,99.90
2019-02-02T20:48:04.043Z,99.90
2019-02-02T20:50:32.791Z,99.90
2019-02-02T20:53:01.553Z,99.90
2019-02-02T20:55:33.141Z,99.90
2019-02-02T20:58:02.023Z,99.90
2019-02-02T21:00:32.079Z,99.90
2019-02-02T21:03:00.900Z,99.90
2019-02-02T21:05:31.715Z,99.90
2019-02-02T21:08:00.172Z,99.90
2019-02-02T21:10:29.057Z,99.90
2019-02-02T21:12:58.040Z,99.90
2019-02-02T21:15:27.075Z,99.90
2019-02-02T21:17:56.048Z,99.90
2019-02-02T21:20:27.442Z,99.90
2019-02-02T21:22:56.614Z,99.90
2019-02-02T21:25:26.006Z,99.90
2019-02-02T21:27:54.916Z,99.90
2019-02-02T21:30:34.544Z,99.90
2019-02-02T21:33:05.004Z,99.90
2019-02-02T21:35:33.928Z,99.90
2019-02-02T21:38:02.975Z,99.90
2019-02-02T21:40:33.574Z,99.90
2019-02-02T21:43:02.525Z,99.90
2019-02-02T21:45:31.568Z,99.90
2019-02-02T21:48:00.334Z,99.90
2019-02-02T21:50:29.152Z,99.90
2019-02-02T21:52:58.042Z,99.90
2019-02-02T21:55:29.294Z,99.90
2019-02-02T21:57:58.225Z,99.90
2019-02-02T22:00:36.177Z,99.90
2019-02-02T22:03:06.906Z,99.90
2019-02-02T22:05:35.707Z,99.90
2019-02-02T22:08:05.825Z,99.90
2019-02-02T22:10:34.729Z,99.90
2019-02-02T22:13:03.608Z,99.90
2019-02-02T22:15:32.599Z,99.90
2019-02-02T22:18:01.313Z,99.90
2019-02-02T22:20:30.181Z,99.90
2019-02-02T22:22:59.067Z,99.90
2019-02-02T22:25:32.997Z,99.90
2019-02-02T22:28:01.954Z,99.90
2019-02-02T22:30:33.800Z,99.90
2019-02-02T22:33:02.751Z,99.90
2019-02-02T22:35:31.610Z,99.90
2019-02-02T22:38:00.763Z,99.90
2019-02-02T22:40:29.586Z,99.90
2019-02-02T22:42:58.552Z,99.90
2019-02-02T22:45:27.580Z,99.90
2019-02-02T22:47:56.497Z,99.90
2019-02-02T22:50:26.931Z,99.90
2019-02-02T22:52:56.405Z,99.90
2019-02-02T22:55:25.751Z,99.90
2019-02-02T22:57:54.976Z,99.90
2019-02-02T23:00:43.486Z,99.90
2019-02-02T23:03:15.341Z,99.90
2019-02-02T23:06:06.876Z,99.90
2019-02-02T23:08:38.728Z,99.90
2019-02-02T23:11:27.059Z,99.90
2019-02-02T23:14:04.255Z,99.90
2019-02-02T23:16:33.678Z,99.90
2019-02-02T23:19:02.587Z,99.90
2019-02-02T23:21:31.761Z,99.90
2019-02-02T23:24:00.662Z,99.90
2019-02-02T23:26:29.615Z,99.90
2019-02-02T23:28:58.492Z,99.90
2019-02-02T23:31:27.514Z,99.90
2019-02-02T23:33:56.380Z,99.90
2019-02-02T23:36:25.089Z,99.90
2019-02-02T23:38:53.981Z,99.90
2019-02-02T23:41:22.854Z,99.90
2019-02-02T23:43:51.591Z,99.90
2019-02-02T23:46:20.537Z,99.90
2019-02-02T23:48:49.341Z,99.90
2019-02-02T23:51:18.340Z,99.90
2019-02-02T23:53:47.254Z,99.90
2019-02-02T23:56:16.205Z,99.90
2019-02-02T23:58:45.452Z,99.90
